createdAt,value
2022-12-09T00:01:05.747Z,3.87
2022-12-09T00:03:33.394Z,4.06
2022-12-09T00:06:01.412Z,4.06
2022-12-09T00:08:29.054Z,3.56
2022-12-09T00:10:56.738Z,3.72
2022-12-09T00:13:24.129Z,3.84
2022-12-09T00:15:52.977Z,3.68
2022-12-09T00:18:20.419Z,3.72
2022-12-09T00:20:47.992Z,3.77
2022-12-09T00:23:15.478Z,3.79
2022-12-09T00:25:42.920Z,3.75
2022-12-09T00:28:10.324Z,3.70
2022-12-09T00:30:37.799Z,3.64
2022-12-09T00:33:06.520Z,3.61
2022-12-09T00:35:33.975Z,3.50
2022-12-09T00:38:01.434Z,3.65
2022-12-09T00:40:28.915Z,3.55
2022-12-09T00:42:56.358Z,3.33
2022-12-09T00:45:24.077Z,3.45
2022-12-09T00:47:51.729Z,3.11
2022-12-09T00:50:20.611Z,3.29
2022-12-09T00:52:48.044Z,3.41
2022-12-09T00:55:15.623Z,3.41
2022-12-09T00:57:43.249Z,3.14
2022-12-09T01:00:12.318Z,3.38
2022-12-09T01:02:40.025Z,3.33
2022-12-09T01:05:08.089Z,3.24
2022-12-09T01:07:37.716Z,3.13
2022-12-09T01:10:06.397Z,3.49
2022-12-09T01:12:34.558Z,3.56
2022-12-09T01:15:02.158Z,3.61
2022-12-09T01:17:29.697Z,3.45
2022-12-09T01:19:57.666Z,3.74
2022-12-09T01:22:25.121Z,3.76
2022-12-09T01:24:54.019Z,3.34
2022-12-09T01:27:21.796Z,3.56
2022-12-09T01:29:49.468Z,3.80
2022-12-09T01:32:17.681Z,3.49
2022-12-09T01:34:45.644Z,3.63
2022-12-09T01:37:13.140Z,3.89
2022-12-09T01:39:40.621Z,3.61
2022-12-09T01:42:19.869Z,3.52
2022-12-09T01:45:37.611Z,3.74
2022-12-09T01:48:11.237Z,3.76
2022-12-09T01:50:40.909Z,3.71
2022-12-09T01:53:08.647Z,3.63
2022-12-09T01:55:36.460Z,3.70
2022-12-09T01:58:06.503Z,3.76
2022-12-09T02:00:34.146Z,3.89
2022-12-09T02:03:02.827Z,3.99
2022-12-09T02:05:31.712Z,4.02
2022-12-09T02:07:59.428Z,3.64
2022-12-09T02:10:28.588Z,3.78
2022-12-09T02:13:06.937Z,3.85
2022-12-09T02:15:43.078Z,3.94
2022-12-09T02:18:17.620Z,3.81
2022-12-09T02:20:55.473Z,3.85
2022-12-09T02:23:28.015Z,3.91
2022-12-09T02:25:58.615Z,4.07
2022-12-09T02:28:45.950Z,4.00
2022-12-09T02:31:25.157Z,3.85
2022-12-09T02:34:07.521Z,4.10
2022-12-09T02:36:42.517Z,4.22
2022-12-09T02:39:11.098Z,3.96
2022-12-09T02:41:43.049Z,3.93
2022-12-09T02:44:16.587Z,4.28
2022-12-09T02:46:45.809Z,4.42
2022-12-09T02:49:15.873Z,4.17
2022-12-09T02:51:45.797Z,4.18
2022-12-09T02:54:16.563Z,4.19
2022-12-09T02:56:51.054Z,4.34
2022-12-09T02:59:18.604Z,4.53
2022-12-09T03:01:50.987Z,4.24
2022-12-09T03:04:23.415Z,4.32
2022-12-09T03:06:53.736Z,4.13
2022-12-09T03:09:25.178Z,4.12
2022-12-09T03:11:53.984Z,4.27
2022-12-09T03:14:28.295Z,4.23
2022-12-09T03:17:00.307Z,4.24
2022-12-09T03:19:33.784Z,4.35
2022-12-09T03:22:04.145Z,4.27
2022-12-09T03:24:37.524Z,4.45
2022-12-09T03:27:09.905Z,4.49
2022-12-09T03:29:42.650Z,4.33
2022-12-09T03:32:12.649Z,4.39
2022-12-09T03:34:46.013Z,4.39
2022-12-09T03:37:18.930Z,4.22
2022-12-09T03:39:48.258Z,4.42
2022-12-09T03:42:20.113Z,4.22
2022-12-09T03:44:52.945Z,4.15
2022-12-09T03:47:20.631Z,4.17
2022-12-09T03:49:49.564Z,4.30
2022-12-09T03:52:21.782Z,4.47
2022-12-09T03:54:54.646Z,4.40
2022-12-09T03:57:23.448Z,4.48
2022-12-09T03:59:55.299Z,4.44
2022-12-09T04:02:23.637Z,4.34
2022-12-09T04:04:53.266Z,4.47
2022-12-09T04:07:20.955Z,4.35
2022-12-09T04:09:48.445Z,4.28
2022-12-09T04:12:15.896Z,4.11
2022-12-09T04:14:43.344Z,4.19
2022-12-09T04:17:12.197Z,4.45
2022-12-09T04:19:39.755Z,4.40
2022-12-09T04:22:08.547Z,4.43
2022-12-09T04:24:36.258Z,4.12
2022-12-09T04:27:03.781Z,4.32
2022-12-09T04:29:31.390Z,4.20
2022-12-09T04:31:59.027Z,4.47
2022-12-09T04:34:26.563Z,4.33
2022-12-09T04:36:54.238Z,4.46
2022-12-09T04:39:23.432Z,4.36
2022-12-09T04:41:50.970Z,4.38
2022-12-09T04:44:18.742Z,4.25
2022-12-09T04:46:46.261Z,4.31
2022-12-09T04:49:14.041Z,4.41
2022-12-09T04:51:42.238Z,4.43
2022-12-09T04:54:13.688Z,4.26
2022-12-09T04:56:43.136Z,4.08
2022-12-09T04:59:11.068Z,4.28
2022-12-09T05:01:38.725Z,4.12
2022-12-09T05:04:06.727Z,4.07
2022-12-09T05:06:35.317Z,4.11
2022-12-09T05:09:03.784Z,4.21
2022-12-09T05:11:32.185Z,4.05
2022-12-09T05:14:01.246Z,4.09
2022-12-09T05:16:28.932Z,3.90
2022-12-09T05:18:57.017Z,3.95
2022-12-09T05:21:24.820Z,3.75
2022-12-09T05:23:52.863Z,3.94
2022-12-09T05:26:23.077Z,3.87
2022-12-09T05:28:51.621Z,4.11
2022-12-09T05:31:23.757Z,4.18
2022-12-09T05:33:52.836Z,3.98
2022-12-09T05:36:24.291Z,4.18
2022-12-09T05:38:52.764Z,4.09
2022-12-09T05:41:21.019Z,4.12
2022-12-09T05:43:48.956Z,4.10
2022-12-09T05:46:16.915Z,4.12
2022-12-09T05:48:46.341Z,4.08
2022-12-09T05:51:17.947Z,4.00
2022-12-09T05:53:45.674Z,3.75
2022-12-09T05:56:16.272Z,3.83
2022-12-09T05:58:43.892Z,3.98
2022-12-09T06:01:11.944Z,4.01
2022-12-09T06:03:39.773Z,4.00
2022-12-09T06:06:10.488Z,3.96
2022-12-09T06:08:39.307Z,3.92
2022-12-09T06:11:12.221Z,4.12
2022-12-09T06:13:40.849Z,4.33
2022-12-09T06:16:09.938Z,4.38
2022-12-09T06:18:38.569Z,4.25
2022-12-09T06:21:07.516Z,4.43
2022-12-09T06:23:38.443Z,4.47
2022-12-09T06:26:06.476Z,4.64
2022-12-09T06:28:35.327Z,4.29
2022-12-09T06:31:02.978Z,4.06
2022-12-09T06:33:54.180Z,4.29
2022-12-09T06:36:18.555Z,4.39
2022-12-09T06:38:47.787Z,4.71
2022-12-09T06:41:17.067Z,4.78
2022-12-09T06:43:44.758Z,4.70
2022-12-09T06:46:13.843Z,4.55
2022-12-09T06:48:41.876Z,4.67
2022-12-09T06:51:09.716Z,4.36
2022-12-09T06:53:37.389Z,4.40
2022-12-09T06:56:12.075Z,4.54
2022-12-09T06:58:41.501Z,4.47
2022-12-09T07:01:13.858Z,4.52
2022-12-09T07:03:42.745Z,4.50
2022-12-09T07:06:21.076Z,4.64
2022-12-09T07:08:49.255Z,4.79
2022-12-09T07:11:18.472Z,4.75
2022-12-09T07:13:46.103Z,4.86
2022-12-09T07:16:14.098Z,4.81
2022-12-09T07:18:42.203Z,4.52
2022-12-09T07:21:11.288Z,4.70
2022-12-09T07:23:40.220Z,4.72
2022-12-09T07:26:08.346Z,4.73
2022-12-09T07:28:39.989Z,4.93
2022-12-09T07:31:07.789Z,4.76
2022-12-09T07:33:35.367Z,4.72
2022-12-09T07:36:03.819Z,4.66
2022-12-09T07:38:31.600Z,4.53
2022-12-09T07:41:05.717Z,4.27
2022-12-09T07:43:34.182Z,4.35
2022-12-09T07:46:06.783Z,4.81
2022-12-09T07:48:35.196Z,4.90
2022-12-09T07:51:03.563Z,4.87
2022-12-09T07:53:31.478Z,4.79
2022-12-09T07:56:03.407Z,4.02
2022-12-09T07:58:31.407Z,4.60
2022-12-09T08:00:59.102Z,4.34
2022-12-09T08:03:28.259Z,4.77
2022-12-09T08:05:56.036Z,4.81
2022-12-09T08:08:24.332Z,4.49
2022-12-09T08:10:52.431Z,4.66
2022-12-09T08:13:21.133Z,4.73
2022-12-09T08:15:48.907Z,4.91
2022-12-09T08:18:16.562Z,4.74
2022-12-09T08:20:45.572Z,4.91
2022-12-09T08:23:13.634Z,4.73
2022-12-09T08:25:41.142Z,4.93
2022-12-09T08:28:09.521Z,4.81
2022-12-09T08:30:37.786Z,4.72
2022-12-09T08:33:05.792Z,4.70
2022-12-09T08:35:33.318Z,4.75
2022-12-09T08:38:02.911Z,4.63
2022-12-09T08:40:31.006Z,4.96
2022-12-09T08:42:58.721Z,4.90
2022-12-09T08:45:26.831Z,5.07
2022-12-09T08:47:54.844Z,4.91
2022-12-09T08:50:22.674Z,4.92
2022-12-09T08:52:50.618Z,4.98
2022-12-09T08:55:19.648Z,5.15
2022-12-09T08:57:47.180Z,4.99
2022-12-09T09:00:16.053Z,4.36
2022-12-09T09:02:44.019Z,4.60
2022-12-09T09:05:12.463Z,3.94
2022-12-09T09:07:40.781Z,4.30
2022-12-09T09:10:10.067Z,4.83
2022-12-09T09:12:43.492Z,4.20
2022-12-09T09:15:12.883Z,4.78
2022-12-09T09:17:42.773Z,4.55
2022-12-09T09:20:13.584Z,4.53
2022-12-09T09:22:41.715Z,5.55
2022-12-09T09:25:10.752Z,3.50
2022-12-09T09:27:39.756Z,3.50
2022-12-09T09:30:09.563Z,4.02
2022-12-09T09:32:38.034Z,2.96
2022-12-09T09:35:06.409Z,4.13
2022-12-09T09:37:34.319Z,3.58
2022-12-09T09:40:01.792Z,2.31
2022-12-09T09:42:35.258Z,2.78
2022-12-09T09:45:12.730Z,3.02
2022-12-09T09:47:44.214Z,3.99
2022-12-09T09:50:26.345Z,3.71
2022-12-09T09:52:56.174Z,3.95
2022-12-09T09:55:31.109Z,3.62
2022-12-09T09:58:07.313Z,3.91
2022-12-09T10:00:47.034Z,3.71
2022-12-09T10:03:21.832Z,4.64
2022-12-09T10:05:54.072Z,4.39
2022-12-09T10:08:37.665Z,4.75
2022-12-09T10:11:15.924Z,4.60
2022-12-09T10:13:53.655Z,4.43
2022-12-09T10:16:25.962Z,3.65
2022-12-09T10:19:08.174Z,3.87
2022-12-09T10:21:42.822Z,4.43
2022-12-09T10:24:20.118Z,4.73
2022-12-09T10:26:57.864Z,5.14
2022-12-09T10:29:36.287Z,5.19
2022-12-09T10:32:05.874Z,5.01
2022-12-09T10:34:33.878Z,4.84
2022-12-09T10:37:01.780Z,4.97
2022-12-09T10:39:29.278Z,4.95
2022-12-09T10:42:16.856Z,4.41
2022-12-09T10:44:44.489Z,4.63
2022-12-09T10:47:26.391Z,4.91
2022-12-09T10:49:56.473Z,4.95
2022-12-09T10:52:27.061Z,4.26
2022-12-09T10:54:55.191Z,4.17
2022-12-09T10:57:25.879Z,4.88
2022-12-09T11:00:01.772Z,5.27
2022-12-09T11:02:33.913Z,5.41
2022-12-09T11:05:24.292Z,5.59
2022-12-09T11:07:54.285Z,5.32
2022-12-09T11:10:24.896Z,5.65
2022-12-09T11:12:55.387Z,5.53
2022-12-09T11:15:28.125Z,5.09
2022-12-09T11:18:00.708Z,5.56
2022-12-09T11:20:30.660Z,5.57
2022-12-09T11:23:05.368Z,5.92
2022-12-09T11:25:35.248Z,5.85
2022-12-09T11:28:06.068Z,5.53
2022-12-09T11:30:40.641Z,5.84
2022-12-09T11:33:26.625Z,5.80
2022-12-09T11:35:59.030Z,5.78
2022-12-09T11:38:36.920Z,5.54
2022-12-09T11:41:14.073Z,4.34
2022-12-09T11:43:45.113Z,4.01
2022-12-09T11:46:25.394Z,4.76
2022-12-09T11:48:59.989Z,4.11
2022-12-09T11:51:31.119Z,4.62
2022-12-09T11:54:04.212Z,5.00
2022-12-09T11:56:33.412Z,4.55
2022-12-09T11:59:04.163Z,4.05
2022-12-09T12:01:42.377Z,4.55
2022-12-09T12:04:14.184Z,5.04
2022-12-09T12:06:45.421Z,4.22
2022-12-09T12:09:17.959Z,4.61
2022-12-09T12:12:03.461Z,4.25
2022-12-09T12:14:31.616Z,3.65
2022-12-09T12:17:09.288Z,4.55
2022-12-09T12:19:40.510Z,5.17
2022-12-09T12:22:21.424Z,5.35
2022-12-09T12:25:17.482Z,3.96
2022-12-09T12:27:59.473Z,4.80
2022-12-09T12:30:35.998Z,4.72
2022-12-09T12:36:13.296Z,3.72
2022-12-09T12:38:55.687Z,3.94
2022-12-09T12:41:29.849Z,4.67
2022-12-09T12:44:25.371Z,4.73
2022-12-09T12:47:03.239Z,4.90
2022-12-09T12:49:43.420Z,3.75
2022-12-09T12:52:54.427Z,3.67
2022-12-09T12:55:26.848Z,2.71
2022-12-09T12:58:05.993Z,3.59
2022-12-09T13:00:41.990Z,4.24
2022-12-09T13:03:25.435Z,4.03
2022-12-09T13:05:56.172Z,4.62
2022-12-09T13:08:29.353Z,3.32
2022-12-09T13:10:59.116Z,3.13
2022-12-09T13:13:30.621Z,2.52
2022-12-09T13:16:03.585Z,2.01
2022-12-09T13:18:35.875Z,3.28
2022-12-09T13:21:05.434Z,4.17
2022-12-09T13:23:50.120Z,3.04
2022-12-09T13:26:27.925Z,3.34
2022-12-09T13:29:02.683Z,4.04
2022-12-09T13:31:31.922Z,3.13
2022-12-09T13:34:13.864Z,3.94
2022-12-09T13:36:45.624Z,3.37
2022-12-09T13:39:52.721Z,3.54
2022-12-09T13:43:01.332Z,2.46
2022-12-09T13:45:34.195Z,2.15
2022-12-09T13:48:09.553Z,2.17
2022-12-09T13:50:42.486Z,2.07
2022-12-09T13:53:26.138Z,1.77
2022-12-09T13:55:57.152Z,1.53
2022-12-09T13:58:41.522Z,2.02
2022-12-09T14:01:19.248Z,3.04
2022-12-09T14:03:53.720Z,2.70
2022-12-09T14:06:25.664Z,2.62
2022-12-09T14:08:56.327Z,2.51
2022-12-09T14:11:47.068Z,2.61
2022-12-09T14:14:51.355Z,2.56
2022-12-09T14:17:41.415Z,3.22
2022-12-09T14:20:21.138Z,3.06
2022-12-09T14:23:19.231Z,2.22
2022-12-09T14:26:09.171Z,2.01
2022-12-09T14:28:55.515Z,2.16
2022-12-09T14:31:57.805Z,2.74
2022-12-09T14:34:32.991Z,1.29
2022-12-09T14:37:15.948Z,2.19
2022-12-09T14:39:48.540Z,2.07
2022-12-09T14:42:27.753Z,1.53
2022-12-09T14:45:04.668Z,1.56
2022-12-09T14:47:35.101Z,0.93
2022-12-09T14:50:10.289Z,1.61
2022-12-09T14:52:37.966Z,1.66
2022-12-09T14:55:09.054Z,1.29
2022-12-09T14:57:41.512Z,1.25
2022-12-09T15:00:27.577Z,1.19
2022-12-09T15:03:30.763Z,1.08
2022-12-09T15:05:54.736Z,0.58
2022-12-09T15:08:33.555Z,0.46
2022-12-09T15:11:05.419Z,1.41
2022-12-09T15:13:34.502Z,1.66
2022-12-09T15:16:03.375Z,1.27
2022-12-09T15:18:31.526Z,0.61
2022-12-09T15:21:01.323Z,1.40
2022-12-09T15:23:32.676Z,1.46
2022-12-09T15:26:01.818Z,0.81
2022-12-09T15:28:30.944Z,1.35
2022-12-09T15:31:01.152Z,0.82
2022-12-09T15:33:33.076Z,1.03
2022-12-09T15:36:03.617Z,1.28
2022-12-09T15:38:40.954Z,1.31
2022-12-09T15:41:27.951Z,1.51
2022-12-09T15:43:58.471Z,0.61
2022-12-09T15:46:27.412Z,0.63
2022-12-09T15:48:58.606Z,0.46
2022-12-09T15:51:27.346Z,1.25
2022-12-09T15:53:58.142Z,0.83
2022-12-09T15:56:31.091Z,0.83
2022-12-09T15:59:02.285Z,0.50
2022-12-09T16:01:32.896Z,0.19
2022-12-09T16:04:03.512Z,0.10
2022-12-09T16:06:34.006Z,0.03
2022-12-09T16:09:02.613Z,-0.04
2022-12-09T16:11:37.945Z,0.26
2022-12-09T16:14:06.015Z,0.04
2022-12-09T16:16:41.690Z,0.11
2022-12-09T16:22:06.331Z,0.60
2022-12-09T16:24:57.891Z,0.53
2022-12-09T16:27:25.484Z,0.82
2022-12-09T16:29:55.062Z,0.16
2022-12-09T16:32:28.215Z,0.54
2022-12-09T16:34:57.624Z,0.43
2022-12-09T16:37:31.256Z,0.11
2022-12-09T16:39:59.480Z,0.51
2022-12-09T16:42:33.259Z,0.59
2022-12-09T16:45:22.719Z,1.90
2022-12-09T16:47:53.948Z,2.22
2022-12-09T16:50:21.682Z,2.37
2022-12-09T16:52:50.592Z,1.28
2022-12-09T16:55:21.898Z,0.55
2022-12-09T16:57:49.775Z,0.55
2022-12-09T17:00:18.814Z,0.63
2022-12-09T17:02:49.419Z,0.76
2022-12-09T17:05:17.205Z,1.77
2022-12-09T17:07:44.925Z,2.03
2022-12-09T17:10:16.197Z,2.47
2022-12-09T17:12:43.920Z,2.45
2022-12-09T17:15:15.337Z,1.71
2022-12-09T17:17:48.293Z,1.03
2022-12-09T17:20:16.409Z,1.60
2022-12-09T17:22:44.307Z,1.78
2022-12-09T17:25:11.761Z,1.32
2022-12-09T17:27:41.858Z,1.53
2022-12-09T17:30:10.579Z,1.23
2022-12-09T17:32:38.440Z,1.27
2022-12-09T17:35:12.380Z,0.53
2022-12-09T17:37:40.397Z,0.51
2022-12-09T17:40:08.667Z,0.89
2022-12-09T17:42:36.669Z,0.75
2022-12-09T17:45:06.674Z,0.63
2022-12-09T17:47:34.568Z,0.45
2022-12-09T17:50:02.069Z,-0.16
2022-12-09T17:52:29.580Z,-0.11
2022-12-09T17:54:57.019Z,-0.12
2022-12-09T17:57:24.431Z,0.09
2022-12-09T17:59:52.022Z,1.05
2022-12-09T18:02:20.846Z,0.18
2022-12-09T18:04:48.405Z,-0.14
2022-12-09T18:07:15.879Z,-0.14
2022-12-09T18:09:43.318Z,-0.92
2022-12-09T18:12:10.792Z,-0.49
2022-12-09T18:14:38.197Z,0.16
2022-12-09T18:17:05.738Z,-0.04
2022-12-09T18:19:35.310Z,-0.23
2022-12-09T18:22:03.218Z,-0.62
2022-12-09T18:24:30.776Z,-0.49
2022-12-09T18:26:58.869Z,-0.80
2022-12-09T18:29:27.129Z,-0.87
2022-12-09T18:31:56.672Z,-0.70
2022-12-09T18:34:24.640Z,-0.58
2022-12-09T18:36:53.603Z,0.58
2022-12-09T18:39:21.743Z,0.91
2022-12-09T18:41:49.237Z,0.02
2022-12-09T18:44:17.114Z,-1.00
2022-12-09T18:46:46.333Z,-1.17
2022-12-09T18:49:15.883Z,-0.58
2022-12-09T18:51:45.509Z,-0.78
2022-12-09T18:54:17.192Z,-0.88
2022-12-09T18:56:45.317Z,-0.48
2022-12-09T18:59:13.423Z,0.29
2022-12-09T19:01:43.213Z,0.53
2022-12-09T19:04:14.883Z,0.04
2022-12-09T19:06:44.674Z,0.46
2022-12-09T19:09:16.053Z,-0.12
2022-12-09T19:11:44.959Z,-0.39
2022-12-09T19:14:14.035Z,-0.79
2022-12-09T19:16:42.965Z,-1.29
2022-12-09T19:19:12.893Z,-0.73
2022-12-09T19:21:40.786Z,-0.75
2022-12-09T19:24:12.325Z,-0.55
2022-12-09T19:26:42.649Z,-0.93
2022-12-09T19:29:11.339Z,-1.26
2022-12-09T19:31:40.815Z,-1.41
2022-12-09T19:34:11.748Z,-1.16
2022-12-09T19:36:39.495Z,-1.06
2022-12-09T19:39:09.227Z,-0.67
2022-12-09T19:41:37.661Z,-0.71
2022-12-09T19:44:07.035Z,-0.87
2022-12-09T19:46:34.832Z,-0.97
2022-12-09T19:49:02.597Z,-0.65
2022-12-09T19:51:30.174Z,-0.20
2022-12-09T19:54:00.084Z,0.33
2022-12-09T19:56:27.819Z,0.60
2022-12-09T19:58:56.009Z,0.87
2022-12-09T20:01:26.911Z,1.48
2022-12-09T20:03:58.142Z,-0.14
2022-12-09T20:06:26.354Z,-0.95
2022-12-09T20:08:54.247Z,-0.98
2022-12-09T20:11:23.827Z,-0.69
2022-12-09T20:13:52.795Z,-0.66
2022-12-09T20:16:22.406Z,0.16
2022-12-09T20:18:52.444Z,-0.46
2022-12-09T20:21:21.453Z,0.16
2022-12-09T20:23:49.816Z,-0.28
2022-12-09T20:26:21.051Z,-0.89
2022-12-09T20:28:50.327Z,-0.40
2022-12-09T20:31:21.023Z,-0.01
2022-12-09T20:33:49.248Z,-0.68
2022-12-09T20:36:20.949Z,-0.69
2022-12-09T20:38:50.352Z,-0.47
2022-12-09T20:41:17.876Z,-0.27
2022-12-09T20:43:49.327Z,-0.31
2022-12-09T20:46:18.479Z,0.18
2022-12-09T20:48:47.322Z,0.41
2022-12-09T20:51:17.342Z,0.17
2022-12-09T20:53:48.039Z,-0.01
2022-12-09T20:56:16.692Z,-0.61
2022-12-09T20:58:45.641Z,-0.41
2022-12-09T21:01:15.104Z,-0.61
2022-12-09T21:03:43.791Z,-0.65
2022-12-09T21:06:12.372Z,0.31
2022-12-09T21:08:40.323Z,-0.27
2022-12-09T21:11:11.038Z,0.11
2022-12-09T21:13:40.176Z,0.38
2022-12-09T21:16:09.850Z,0.18
2022-12-09T21:18:37.646Z,0.51
2022-12-09T21:21:06.424Z,-0.20
2022-12-09T21:23:36.281Z,0.36
2022-12-09T21:26:06.136Z,-0.30
2022-12-09T21:28:35.491Z,0.63
2022-12-09T21:31:08.497Z,0.23
2022-12-09T21:33:36.798Z,0.41
2022-12-09T21:36:06.682Z,-0.19
2022-12-09T21:38:34.784Z,-0.17
2022-12-09T21:41:04.679Z,0.16
2022-12-09T21:43:36.068Z,1.29
2022-12-09T21:46:04.025Z,0.60
2022-12-09T21:48:31.966Z,1.57
2022-12-09T21:51:01.274Z,0.40
2022-12-09T21:53:29.844Z,0.73
2022-12-09T21:56:02.721Z,0.12
2022-12-09T21:58:31.731Z,0.52
2022-12-09T22:01:01.990Z,0.84
2022-12-09T22:03:29.540Z,0.85
2022-12-09T22:05:59.989Z,0.73
2022-12-09T22:08:28.094Z,1.23
2022-12-09T22:10:58.313Z,0.19
2022-12-09T22:13:28.119Z,-0.13
2022-12-09T22:15:55.595Z,0.13
2022-12-09T22:18:24.542Z,0.44
2022-12-09T22:21:23.635Z,0.76
2022-12-09T22:23:40.029Z,0.74
2022-12-09T22:26:08.122Z,1.56
2022-12-09T22:28:36.380Z,0.55
2022-12-09T22:31:09.896Z,0.83
2022-12-09T22:33:39.102Z,0.68
2022-12-09T22:36:08.583Z,0.24
2022-12-09T22:38:38.011Z,0.08
2022-12-09T22:41:07.534Z,0.14
2022-12-09T22:43:38.218Z,-0.14
2022-12-09T22:46:07.384Z,0.50
2022-12-09T22:48:36.049Z,1.38
2022-12-09T22:51:06.395Z,0.90
2022-12-09T22:53:34.159Z,1.14
2022-12-09T22:56:01.709Z,1.30
2022-12-09T22:58:29.133Z,0.21
2022-12-09T23:00:56.897Z,0.68
2022-12-09T23:03:24.819Z,0.66
2022-12-09T23:05:52.436Z,0.09
2022-12-09T23:08:22.398Z,-0.15
2022-12-09T23:10:50.254Z,-0.32
2022-12-09T23:13:18.085Z,0.76
2022-12-09T23:15:45.711Z,1.23
2022-12-09T23:18:13.240Z,0.74
2022-12-09T23:20:40.778Z,1.04
2022-12-09T23:23:08.180Z,0.74
2022-12-09T23:25:46.721Z,0.28
2022-12-09T23:28:14.124Z,1.02
2022-12-09T23:30:41.645Z,0.70
2022-12-09T23:33:09.083Z,0.78
2022-12-09T23:35:39.327Z,0.68
2022-12-09T23:38:06.760Z,0.73
2022-12-09T23:40:34.168Z,1.35
2022-12-09T23:43:02.928Z,0.69
2022-12-09T23:45:30.326Z,1.22
2022-12-09T23:47:57.740Z,0.86
2022-12-09T23:50:25.687Z,1.48
2022-12-09T23:52:53.091Z,0.94
2022-12-09T23:55:20.527Z,0.52
2022-12-09T23:57:50.123Z,-0.20
